createdAt,value
2018-09-21T00:00:22.078Z,95759.3
2018-09-21T00:05:17.312Z,95758.2
2018-09-21T00:10:12.953Z,95761.5
2018-09-21T00:15:08.320Z,95758.4
2018-09-21T00:20:03.780Z,95753.1
2018-09-21T00:24:59.062Z,95762.4
2018-09-21T00:29:54.885Z,95894.9
2018-09-21T00:34:50.130Z,95757.9
2018-09-21T00:39:45.466Z,95965.1
2018-09-21T00:44:40.824Z,95929.8
2018-09-21T00:49:36.768Z,95942.9
2018-09-21T00:54:32.799Z,95868.1
2018-09-21T00:59:28.709Z,95863.6
2018-09-21T01:04:24.089Z,95862.3
2018-09-21T01:09:19.557Z,95858.5
2018-09-21T01:14:14.896Z,95864.6
2018-09-21T01:19:10.104Z,95866.2
2018-09-21T01:24:05.748Z,95865.7
2018-09-21T01:29:01.196Z,95867.4
2018-09-21T01:33:56.801Z,95861.7
2018-09-21T01:38:52.240Z,95867
2018-09-21T01:43:48.260Z,95863.3
2018-09-21T01:48:42.974Z,95868.2
2018-09-21T01:53:38.364Z,95867.2
2018-09-21T01:58:33.568Z,95864.3
2018-09-21T02:03:29.138Z,95864.6
2018-09-21T02:08:24.929Z,95853
2018-09-21T02:13:20.293Z,95634.4
2018-09-21T02:18:15.313Z,95860.3
2018-09-21T02:23:11.060Z,95859.9
2018-09-21T02:28:06.340Z,95857.3
2018-09-21T02:33:01.666Z,95857.4
2018-09-21T02:37:56.673Z,95862.7
2018-09-21T02:42:52.069Z,95856.7
2018-09-21T02:47:47.465Z,95854
2018-09-21T02:52:43.034Z,95860.1
2018-09-21T02:57:38.539Z,95869.5
2018-09-21T03:02:34.040Z,95863.8
2018-09-21T03:07:29.918Z,95865.7
2018-09-21T03:12:25.065Z,95868.6
2018-09-21T03:17:20.745Z,95908.9
2018-09-21T03:22:15.920Z,95878.9
2018-09-21T03:27:12.104Z,95877.2
2018-09-21T03:32:07.747Z,95875.8
2018-09-21T03:37:03.024Z,95877.4
2018-09-21T03:41:58.511Z,95876.9
2018-09-21T03:46:53.343Z,95873.8
2018-09-21T03:51:48.845Z,95873
2018-09-21T03:56:44.386Z,95873.1
2018-09-21T04:01:39.697Z,95880.7
2018-09-21T04:06:34.991Z,95875
2018-09-21T04:11:30.421Z,95881.8
2018-09-21T04:16:25.861Z,95874.3
2018-09-21T04:21:21.322Z,95881
2018-09-21T04:26:16.702Z,95876.9
2018-09-21T04:31:11.798Z,95876.2
2018-09-21T04:36:07.376Z,95881.1
2018-09-21T04:41:03.057Z,95893.5
2018-09-21T04:45:58.224Z,95890.8
2018-09-21T04:50:53.540Z,95894.9
2018-09-21T04:55:49.041Z,95901.4
2018-09-21T05:00:44.282Z,95900.3
2018-09-21T05:05:39.745Z,95901.1
2018-09-21T05:10:35.236Z,95897.9
2018-09-21T05:15:30.719Z,95894.2
2018-09-21T05:20:26.026Z,95886
2018-09-21T05:25:20.854Z,95886.9
2018-09-21T05:30:16.008Z,95892.1
2018-09-21T05:35:11.571Z,95886
2018-09-21T05:40:06.836Z,95885.3
2018-09-21T05:45:01.910Z,95889.6
2018-09-21T05:49:57.217Z,95885.9
2018-09-21T05:54:52.741Z,95884.3
2018-09-21T05:59:48.228Z,95885.6
2018-09-21T06:04:43.341Z,95892.6
2018-09-21T06:09:38.376Z,95893.1
2018-09-21T06:14:36.059Z,95890.3
2018-09-21T06:19:30.098Z,95891.5
2018-09-21T06:24:24.810Z,95891.4
2018-09-21T06:29:20.189Z,95889.8
2018-09-21T06:34:16.107Z,95893.2
2018-09-21T06:39:11.423Z,95892.2
2018-09-21T06:44:06.711Z,95886.9
2018-09-21T06:49:01.716Z,95891
2018-09-21T06:53:57.278Z,95891.7
2018-09-21T06:58:53.016Z,95889
2018-09-21T07:03:48.609Z,96013.9
2018-09-21T07:08:43.943Z,95905
2018-09-21T07:13:39.120Z,95894.1
2018-09-21T07:18:34.435Z,95896
2018-09-21T07:23:29.923Z,95785.6
2018-09-21T07:28:25.256Z,96018.1
2018-09-21T07:33:20.418Z,95902.7
2018-09-21T07:38:15.812Z,96017.4
2018-09-21T07:43:11.358Z,95891
2018-09-21T07:48:06.666Z,95890.8
2018-09-21T07:53:02.093Z,95995.3
2018-09-21T07:57:58.326Z,95884.8
2018-09-21T08:02:53.890Z,95771.2
2018-09-21T08:07:48.996Z,95983.6
2018-09-21T08:12:44.575Z,95783.5
2018-09-21T08:17:40.064Z,95770
2018-09-21T08:22:35.538Z,95772.6
2018-09-21T08:27:30.838Z,95771
2018-09-21T08:32:26.455Z,95764.9
2018-09-21T08:37:22.033Z,95766.7
2018-09-21T08:42:17.651Z,95772.5
2018-09-21T08:47:15.383Z,95763.4
2018-09-21T08:52:10.736Z,95851.8
2018-09-21T08:57:05.840Z,95750.5
2018-09-21T09:02:01.716Z,95748.9
2018-09-21T09:06:57.856Z,95842.5
2018-09-21T09:11:53.786Z,95838.9
2018-09-21T09:16:49.231Z,95841.3
2018-09-21T09:21:44.497Z,95724.3
2018-09-21T09:26:41.098Z,95731.2
2018-09-21T09:31:36.926Z,95725
2018-09-21T09:36:32.412Z,95718.4
2018-09-21T09:41:28.150Z,95821.5
2018-09-21T09:46:23.709Z,95717.9
2018-09-21T09:51:19.456Z,95813.4
2018-09-21T09:56:15.268Z,95699.3
2018-09-21T10:01:10.870Z,95806.2
2018-09-21T10:06:06.485Z,95803.5
2018-09-21T10:11:02.317Z,95795.3
2018-09-21T10:15:58.040Z,95797.5
2018-09-21T10:20:53.636Z,95793.9
2018-09-21T10:25:49.457Z,95790.3
2018-09-21T10:30:45.192Z,95692.7
2018-09-21T10:35:40.839Z,95781
2018-09-21T10:40:36.788Z,95776.2
2018-09-21T10:45:32.184Z,95797.7
2018-09-21T10:50:28.007Z,95761.9
2018-09-21T10:55:23.635Z,95756.1
2018-09-21T11:00:19.307Z,95753
2018-09-21T11:05:15.077Z,95750.2
2018-09-21T11:10:10.817Z,95742.8
2018-09-21T11:15:06.566Z,95865.8
2018-09-21T11:20:01.493Z,95736.9
2018-09-21T11:24:56.726Z,95733.8
2018-09-21T11:29:52.369Z,95734.2
2018-09-21T11:34:47.608Z,95723.4
2018-09-21T11:39:43.327Z,95718.5
2018-09-21T11:44:40.136Z,95530
2018-09-21T11:49:35.796Z,95713.9
2018-09-21T11:54:30.826Z,95717.7
2018-09-21T11:59:26.973Z,95710.8
2018-09-21T12:04:22.274Z,95706
2018-09-21T12:09:17.467Z,95703.1
2018-09-21T12:14:12.981Z,95704.2
2018-09-21T12:19:08.585Z,95698.2
2018-09-21T12:24:04.241Z,95529.9
2018-09-21T12:29:00.267Z,95768.8
2018-09-21T12:33:55.817Z,95685.4
2018-09-21T12:38:51.338Z,95748.2
2018-09-21T12:43:46.877Z,95683.6
2018-09-21T12:48:42.615Z,95675.1
2018-09-21T12:53:38.193Z,95670.3
2018-09-21T12:58:34.358Z,95674.5
2018-09-21T13:03:29.564Z,95675.8
2018-09-21T13:08:25.052Z,95672.1
2018-09-21T13:13:20.646Z,95669.6
2018-09-21T13:18:15.945Z,95674.4
2018-09-21T13:23:11.688Z,95669
2018-09-21T13:28:06.639Z,95666.3
2018-09-21T13:33:02.313Z,95753.6
2018-09-21T13:37:58.071Z,95654.5
2018-09-21T13:42:53.653Z,95655.3
2018-09-21T13:47:49.121Z,95659.3
2018-09-21T13:52:44.893Z,95656
2018-09-21T13:57:40.700Z,95657.1
2018-09-21T14:02:36.124Z,95736.7
2018-09-21T14:07:31.787Z,95725.5
2018-09-21T14:12:27.095Z,95647.6
2018-09-21T14:17:21.909Z,95652
2018-09-21T14:22:17.553Z,95648.1
2018-09-21T14:27:13.433Z,95650.4
2018-09-21T14:32:09.169Z,95651.2
2018-09-21T14:37:04.667Z,95646.2
2018-09-21T14:42:00.149Z,95738.9
2018-09-21T14:46:55.298Z,95637.1
2018-09-21T14:51:51.398Z,95549.2
2018-09-21T14:56:46.454Z,95642.7
2018-09-21T15:01:41.737Z,95644.5
2018-09-21T15:06:37.712Z,95644.1
2018-09-21T15:11:33.823Z,95723.6
2018-09-21T15:16:29.204Z,95640.7
2018-09-21T15:21:24.467Z,95639.6
2018-09-21T15:26:21.198Z,95634
2018-09-21T15:31:15.548Z,95640.2
2018-09-21T15:36:11.171Z,95638.7
2018-09-21T15:41:06.909Z,95707.4
2018-09-21T15:46:02.263Z,95628.4
2018-09-21T15:50:57.901Z,95627.3
2018-09-21T15:55:53.760Z,95617.9
2018-09-21T16:00:48.956Z,95619.3
2018-09-21T16:05:44.564Z,95628
2018-09-21T16:10:40.088Z,95626.4
2018-09-21T16:15:35.832Z,95631.9
2018-09-21T16:20:30.822Z,95629.4
2018-09-21T16:25:26.801Z,95537.2
2018-09-21T16:30:22.537Z,95636.2
2018-09-21T16:35:18.809Z,95638.5
2018-09-21T16:40:14.346Z,95632.8
2018-09-21T16:45:10.205Z,95638.2
2018-09-21T16:50:05.718Z,95633.9
2018-09-21T16:55:01.927Z,95636.1
2018-09-21T16:59:57.133Z,95638.8
2018-09-21T17:04:52.833Z,95651.5
2018-09-21T17:09:48.538Z,95651.1
2018-09-21T17:14:44.003Z,95653
2018-09-21T17:19:39.631Z,95648.8
2018-09-21T17:24:34.821Z,95656.3
2018-09-21T17:29:30.456Z,95665.7
2018-09-21T17:34:25.829Z,95656.7
2018-09-21T17:39:21.432Z,95570.7
2018-09-21T17:44:17.029Z,95574.7
2018-09-21T17:49:12.847Z,95564.7
2018-09-21T17:54:08.664Z,95712.3
2018-09-21T17:59:03.996Z,95581.8
2018-09-21T18:03:59.852Z,95686.8
2018-09-21T18:08:55.530Z,95588.3
2018-09-21T18:13:50.698Z,95687.7
2018-09-21T18:18:46.283Z,95583.8
2018-09-21T18:23:42.094Z,95689.8
2018-09-21T18:28:37.737Z,95602
2018-09-21T18:33:33.739Z,95695.9
2018-09-21T18:38:29.403Z,95704.9
2018-09-21T18:43:24.860Z,95603.3
2018-09-21T18:48:20.427Z,95598.5
2018-09-21T18:53:16.190Z,95703
2018-09-21T18:58:11.353Z,95602.5
2018-09-21T19:03:07.100Z,95605.7
2018-09-21T19:08:02.920Z,95704.6
2018-09-21T19:12:58.382Z,95606.4
2018-09-21T19:17:54.789Z,95699.9
2018-09-21T19:22:49.828Z,95601
2018-09-21T19:27:45.979Z,95668.9
2018-09-21T19:32:41.448Z,95709.2
2018-09-21T19:37:36.628Z,95703.2
2018-09-21T19:42:32.521Z,95705.3
2018-09-21T19:47:27.895Z,95599.2
2018-09-21T19:52:24.268Z,95706.8
2018-09-21T19:57:20.426Z,95711.4
2018-09-21T20:02:16.339Z,95714
2018-09-21T20:07:12.402Z,95710
2018-09-21T20:12:07.821Z,95596.8
2018-09-21T20:17:03.266Z,95601.3
2018-09-21T20:21:58.647Z,95676.6
2018-09-21T20:26:54.195Z,95616.8
2018-09-21T20:31:50.000Z,95718.7
2018-09-21T20:36:45.611Z,95718.8
2018-09-21T20:41:40.436Z,95614
2018-09-21T20:46:35.749Z,95718
2018-09-21T20:51:31.281Z,95580.3
2018-09-21T20:56:26.707Z,95614.3
2018-09-21T21:01:22.313Z,95625.4
2018-09-21T21:06:17.791Z,95719
2018-09-21T21:11:13.187Z,95617.9
2018-09-21T21:16:08.755Z,95518
2018-09-21T21:21:04.280Z,95719.9
2018-09-21T21:25:59.764Z,95621.1
2018-09-21T21:30:55.118Z,95628.9
2018-09-21T21:35:50.653Z,95446.8
2018-09-21T21:40:45.934Z,95628.4
2018-09-21T21:45:41.197Z,95629.8
2018-09-21T21:50:37.303Z,95628.8
2018-09-21T21:55:32.904Z,95620.7
2018-09-21T22:00:28.050Z,95631.6
2018-09-21T22:05:23.706Z,95627.3
2018-09-21T22:10:19.432Z,95627.2
2018-09-21T22:15:14.800Z,95631.2
2018-09-21T22:20:10.557Z,95624
2018-09-21T22:25:06.017Z,95626.8
2018-09-21T22:30:01.537Z,95624.7
2018-09-21T22:34:56.764Z,95622.9
2018-09-21T22:39:52.319Z,95621.9
2018-09-21T22:44:47.869Z,95627.6
2018-09-21T22:49:43.541Z,95620.5
2018-09-21T22:54:39.414Z,95622.6
2018-09-21T22:59:34.959Z,95622.1
2018-09-21T23:04:30.620Z,95618.3
2018-09-21T23:09:25.979Z,95619.5
2018-09-21T23:14:21.659Z,95650.3
2018-09-21T23:19:17.342Z,95639.2
2018-09-21T23:24:12.945Z,95634.8
2018-09-21T23:29:08.297Z,95913
2018-09-21T23:34:03.847Z,95624.7
2018-09-21T23:38:59.184Z,95841.4
2018-09-21T23:43:54.942Z,95739.7
2018-09-21T23:48:50.497Z,95869.8
2018-09-21T23:53:46.071Z,95769.7
2018-09-21T23:58:41.993Z,95745
